Terminal Aerodrome Forecast
Issued by NWS Lake Charles, LA

Home | Current Version | Previous Version | Text Only | Print | Product List | Glossary On
Versions: 1 2 3 4 5 6 7 8 9 10 11 12 13 14 15 16
000
FTUS44 KLCH 282322
TAFLCH
TAF
KLCH 282322Z 2900/2924 10010KT P6SM VCSH SCT020 BKN045
     FM290200 12007KT P6SM BKN100
     FM291200 15007KT P6SM VCTS BKN025CB=

USA.gov is the U.S. government's official web portal to all federal, state and local government web resources and services.